Time;durP1;ratioP1;P1;durP2;ratioP2;P2;SDS_P1;SDS_P2;PMS_P1;PMS_P2;Temp;Humidity;BMP_temperature;BMP_pressure;BME280_temperature;BME280_humidity;BME280_pressure;Samples;Min_cycle;Max_cycle;Signal;HPM_P1;HPM_P2
2021/04/15 00:09:18;;;;;;;13.40;8.48;;;2.30;99.90;;;;;;6760435;88;20200;-77
2021/04/15 00:19:19;;;;;;;19.30;10.00;;;2.20;99.90;;;;;;6768530;87;20207;-78
2021/04/15 00:29:20;;;;;;;15.80;10.10;;;2.00;99.90;;;;;;6761169;88;20207;-77
2021/04/15 00:39:20;;;;;;;16.62;9.88;;;2.10;99.90;;;;;;6771321;88;20191;-76
2021/04/15 00:49:46;;;;;;;16.77;10.82;;;2.00;99.90;;;;;;6760620;88;20492;-77
2021/04/15 00:59:47;;;;;;;21.08;10.85;;;2.00;99.90;;;;;;6743462;88;20169;-76
2021/04/15 01:09:49;;;;;;;21.20;10.85;;;1.60;99.90;;;;;;6753512;88;20221;-76
2021/04/15 01:20:07;;;;;;;19.37;11.12;;;1.60;99.90;;;;;;6758380;88;20330;-77
2021/04/15 01:30:24;;;;;;;19.10;11.20;;;1.60;99.90;;;;;;6744069;88;20280;-79
2021/04/15 01:40:27;;;;;;;;;;;1.50;99.90;;;;;;6755867;88;20176;-77
2021/04/15 01:50:42;;;;;;;23.27;13.23;;;1.40;99.90;;;;;;6758521;88;20069;-79
2021/04/15 02:00:47;;;;;;;27.23;14.52;;;1.30;99.90;;;;;;6745762;88;20181;-77
2021/04/15 02:10:57;;;;;;;27.98;16.00;;;1.40;99.90;;;;;;6741720;88;20222;-76
2021/04/15 02:21:05;;;;;;;25.60;14.27;;;1.10;99.90;;;;;;6745919;88;20193;-78
2021/04/15 02:31:31;;;;;;;26.65;14.63;;;1.20;99.90;;;;;;6745935;88;20173;-77
2021/04/15 02:41:33;;;;;;;36.95;17.05;;;0.90;99.90;;;;;;6743319;88;20198;-78
2021/04/15 02:51:57;;;;;;;33.47;17.42;;;0.90;99.90;;;;;;6745726;88;20281;-78
2021/04/15 03:02:06;;;;;;;33.78;17.45;;;0.70;99.90;;;;;;6745724;88;20389;-78
2021/04/15 03:12:14;;;;;;;32.38;16.77;;;0.70;99.90;;;;;;6752768;88;20182;-78
2021/04/15 03:22:26;;;;;;;31.27;16.80;;;0.50;99.90;;;;;;6756911;88;20164;-78
2021/04/15 03:32:45;;;;;;;31.92;17.23;;;0.40;99.90;;;;;;6745060;88;20204;-78
2021/04/15 03:42:52;;;;;;;30.17;15.73;;;0.40;99.90;;;;;;6743976;88;20180;-78
2021/04/15 03:53:10;;;;;;;31.42;16.02;;;0.40;99.90;;;;;;6747476;88;20203;-77
2021/04/15 04:03:16;;;;;;;33.70;16.70;;;0.60;99.90;;;;;;6765644;88;20191;-77
2021/04/15 04:13:32;;;;;;;37.63;18.70;;;0.50;99.90;;;;;;6764928;88;20179;-78
2021/04/15 04:23:44;;;;;;;35.55;17.50;;;0.40;99.90;;;;;;6758062;88;20773;-78
2021/04/15 04:33:48;;;;;;;34.95;17.25;;;0.20;99.90;;;;;;6740757;88;20200;-78
2021/04/15 04:43:56;;;;;;;37.22;17.95;;;0.20;99.90;;;;;;6747495;88;20556;-79
2021/04/15 04:54:07;;;;;;;33.33;16.30;;;0.10;99.90;;;;;;6744199;88;20188;-78
2021/04/15 05:04:08;;;;;;;35.95;17.35;;;0.10;99.90;;;;;;6746347;88;20691;-78
2021/04/15 05:14:11;;;;;;;36.20;17.77;;;0.30;99.90;;;;;;6746173;88;20198;-78
2021/04/15 05:24:32;;;;;;;35.63;16.77;;;0.70;99.90;;;;;;6744698;88;20732;-78
2021/04/15 05:34:45;;;;;;;35.88;16.45;;;0.80;99.90;;;;;;6743286;88;20290;-77
2021/04/15 05:45:10;;;;;;;35.45;17.23;;;0.90;99.90;;;;;;6748310;88;20215;-78
2021/04/15 05:55:15;;;;;;;34.00;17.73;;;1.00;99.90;;;;;;6755773;88;20307;-78
2021/04/15 06:05:37;;;;;;;37.70;18.17;;;1.30;99.90;;;;;;6745824;88;20204;-78
2021/04/15 06:15:58;;;;;;;33.45;17.92;;;1.70;99.90;;;;;;6745396;88;20185;-78
2021/04/15 06:25:59;;;;;;;31.25;17.37;;;2.30;99.90;;;;;;6753296;88;20205;-78
2021/04/15 06:36:01;;;;;;;31.37;16.98;;;3.10;99.90;;;;;;6743327;88;20204;-80
2021/04/15 06:46:24;;;;;;;33.97;17.30;;;3.40;99.90;;;;;;6744394;88;20235;-78
2021/04/15 06:57:01;;;;;;;33.28;17.23;;;4.00;99.90;;;;;;6743081;88;20239;-78
2021/04/15 07:07:19;;;;;;;26.45;15.75;;;4.40;99.90;;;;;;6732357;88;20245;-78
2021/04/15 07:17:55;;;;;;;25.20;12.82;;;5.30;99.90;;;;;;6742683;88;20216;-77
2021/04/15 07:28:33;;;;;;;22.98;12.85;;;5.80;99.90;;;;;;6747902;88;20165;-80
2021/04/15 07:39:00;;;;;;;16.15;9.65;;;6.40;99.90;;;;;;6754394;88;20184;-78
2021/04/15 07:49:06;;;;;;;;;;;7.20;99.90;;;;;;6765908;88;20657;-79
2021/04/15 07:59:24;;;;;;;13.95;7.85;;;7.50;99.90;;;;;;6765915;88;20068;-79
2021/04/15 08:09:57;;;;;;;13.65;8.52;;;8.20;99.90;;;;;;6773735;87;20180;-80
2021/04/15 08:20:36;;;;;;;14.23;7.87;;;8.50;99.90;;;;;;6760882;88;20207;-79
2021/04/15 08:30:53;;;;;;;14.50;7.87;;;9.40;99.90;;;;;;6757951;88;20197;-79
2021/04/15 08:41:21;;;;;;;10.10;6.60;;;9.60;99.90;;;;;;6762271;87;20238;-79
2021/04/15 08:51:40;;;;;;;11.40;7.53;;;10.30;99.90;;;;;;6754814;88;20184;-78
2021/04/15 09:01:51;;;;;;;10.50;6.50;;;10.40;99.90;;;;;;6746589;88;20208;-78
2021/04/15 09:12:18;;;;;;;12.37;6.62;;;12.00;97.60;;;;;;6746148;88;20201;-79
2021/04/15 09:22:53;;;;;;;7.90;5.82;;;12.30;95.70;;;;;;6757570;88;20184;-79
2021/04/15 09:33:20;;;;;;;10.25;5.37;;;12.40;93.90;;;;;;6741344;88;20314;-78
2021/04/15 09:43:39;;;;;;;8.43;5.32;;;12.60;92.40;;;;;;6740586;88;20219;-79
2021/04/15 09:53:56;;;;;;;8.00;5.22;;;12.80;90.70;;;;;;6742936;88;20172;-80
2021/04/15 10:04:03;;;;;;;6.20;4.15;;;11.70;92.00;;;;;;6743477;88;20210;-78
2021/04/15 10:14:22;;;;;;;5.87;4.07;;;11.10;92.60;;;;;;6750694;88;20209;-77
2021/04/15 10:24:32;;;;;;;11.93;4.00;;;10.80;94.30;;;;;;6738147;88;20214;-78
2021/04/15 10:34:35;;;;;;;6.47;3.67;;;10.40;93.80;;;;;;6736525;88;20298;-77
2021/04/15 10:44:53;;;;;;;8.13;3.60;;;11.00;93.10;;;;;;6735778;88;20211;-77
2021/04/15 10:55:12;;;;;;;5.78;2.90;;;13.40;86.40;;;;;;6736264;88;20200;-77
2021/04/15 11:05:36;;;;;;;4.22;2.72;;;12.80;82.90;;;;;;6734948;88;20211;-77
2021/04/15 11:15:53;;;;;;;4.82;2.83;;;11.30;88.70;;;;;;6737010;88;20184;-77
2021/04/15 11:26:08;;;;;;;6.18;2.90;;;10.80;90.00;;;;;;6745129;88;20184;-78
2021/04/15 11:36:32;;;;;;;6.55;2.60;;;11.20;90.50;;;;;;6749766;88;20176;-78
2021/04/15 11:46:50;;;;;;;4.68;2.70;;;13.70;80.60;;;;;;6754322;88;20202;-77
2021/04/15 11:56:51;;;;;;;5.32;2.72;;;14.20;76.40;;;;;;6736800;88;20204;-77
2021/04/15 12:06:59;;;;;;;4.68;2.30;;;13.50;74.10;;;;;;6735862;88;20188;-77
2021/04/15 12:17:10;;;;;;;3.60;1.92;;;14.60;73.50;;;;;;6736083;88;20192;-77
2021/04/15 12:27:13;;;;;;;3.65;1.90;;;14.80;68.70;;;;;;6736272;88;20244;-77
2021/04/15 12:37:29;;;;;;;2.83;1.40;;;14.70;65.10;;;;;;6737489;88;20209;-77
2021/04/15 12:47:33;;;;;;;2.73;1.30;;;13.30;66.60;;;;;;6736964;88;20197;-77
2021/04/15 12:57:34;;;;;;;4.60;1.75;;;12.40;70.10;;;;;;6732561;88;20251;-77
2021/04/15 13:07:39;;;;;;;4.07;1.48;;;12.40;68.60;;;;;;6735688;88;20318;-77
2021/04/15 13:17:43;;;;;;;2.92;1.23;;;12.20;69.60;;;;;;6732529;88;20247;-75
2021/04/15 13:27:55;;;;;;;4.87;1.58;;;12.40;67.60;;;;;;6736588;88;20217;-77
2021/04/15 13:37:58;;;;;;;4.00;1.60;;;11.80;70.10;;;;;;6736815;88;20223;-78
2021/04/15 13:47:59;;;;;;;3.95;1.58;;;11.00;74.70;;;;;;6738837;88;20632;-77
2021/04/15 13:58:01;;;;;;;5.97;1.60;;;10.30;80.20;;;;;;6736911;88;20226;-79
2021/04/15 14:08:23;;;;;;;3.67;1.50;;;10.70;76.40;;;;;;6736819;88;20283;-77
2021/04/15 14:18:34;;;;;;;6.07;2.30;;;11.40;74.10;;;;;;6738189;88;20312;-80
2021/04/15 14:28:36;;;;;;;5.53;2.03;;;12.20;74.30;;;;;;6742846;88;20325;-79
2021/04/15 14:38:38;;;;;;;5.15;2.20;;;12.90;74.20;;;;;;6741152;88;20208;-78
2021/04/15 14:48:39;;;;;;;4.18;2.30;;;13.50;70.40;;;;;;6743630;88;20319;-78
2021/04/15 14:58:42;;;;;;;4.37;2.40;;;14.60;65.40;;;;;;6741853;88;20190;-77
2021/04/15 15:08:44;;;;;;;3.67;2.03;;;14.80;63.60;;;;;;6741496;88;20184;-78
2021/04/15 15:18:46;;;;;;;4.18;2.30;;;14.50;63.40;;;;;;6750550;88;20314;-77
2021/04/15 15:29:00;;;;;;;3.80;2.20;;;13.70;64.60;;;;;;6761021;88;20223;-77
2021/04/15 15:39:00;;;;;;;3.78;2.28;;;13.40;66.40;;;;;;6761024;88;20229;-78
2021/04/15 15:49:01;;;;;;;3.05;2.10;;;12.40;69.90;;;;;;6763299;88;20223;-78
2021/04/15 15:59:12;;;;;;;7.67;1.90;;;11.30;78.00;;;;;;6770153;88;20216;-78
2021/04/15 16:09:15;;;;;;;3.35;1.60;;;10.30;77.10;;;;;;6760430;88;20529;-78
2021/04/15 16:19:16;;;;;;;3.60;1.80;;;10.60;75.00;;;;;;6759325;88;20272;-77
2021/04/15 16:29:17;;;;;;;4.65;2.00;;;11.10;71.50;;;;;;6717823;88;20847;-78
2021/04/15 16:39:19;;;;;;;4.45;1.80;;;11.70;69.30;;;;;;6660495;88;20734;-77
2021/04/15 16:49:20;;;;;;;3.83;1.70;;;12.00;67.80;;;;;;6676722;88;20210;-79
2021/04/15 16:59:24;;;;;;;5.93;2.05;;;12.20;64.90;;;;;;6682502;88;20243;-77
2021/04/15 17:09:25;;;;;;;3.95;1.58;;;11.80;64.10;;;;;;6680083;88;20244;-80
2021/04/15 17:19:25;;;;;;;4.15;1.50;;;11.40;65.50;;;;;;6654932;88;20215;-79
2021/04/15 17:29:26;;;;;;;3.70;1.67;;;11.10;66.90;;;;;;6666741;88;20690;-79
2021/04/15 17:39:29;;;;;;;3.58;1.62;;;10.90;66.40;;;;;;6652954;88;20230;-79
2021/04/15 17:49:30;;;;;;;3.78;1.42;;;10.60;66.50;;;;;;6652180;88;20212;-78
2021/04/15 17:59:31;;;;;;;2.87;1.42;;;10.30;64.10;;;;;;6665534;88;20280;-78
2021/04/15 18:09:32;;;;;;;5.10;1.62;;;10.00;64.00;;;;;;6660776;88;20235;-78
2021/04/15 18:19:32;;;;;;;2.70;1.37;;;9.90;63.90;;;;;;6661606;88;20335;-78
2021/04/15 18:29:33;;;;;;;4.22;1.60;;;9.60;66.20;;;;;;6648058;88;20195;-78
2021/04/15 18:39:33;;;;;;;5.12;2.00;;;9.40;67.30;;;;;;6652391;88;20416;-77
2021/04/15 18:49:35;;;;;;;4.30;1.80;;;9.20;69.70;;;;;;6675871;88;20323;-79
2021/04/15 18:59:37;;;;;;;3.47;1.65;;;8.80;71.60;;;;;;6667747;88;20767;-78
2021/04/15 19:09:37;;;;;;;5.72;1.90;;;8.50;72.10;;;;;;6686555;88;20187;-78
2021/04/15 19:19:38;;;;;;;3.78;2.00;;;8.20;73.80;;;;;;6698568;88;20184;-78
2021/04/15 19:29:39;;;;;;;7.70;2.45;;;7.80;76.20;;;;;;6680171;88;20625;-78
2021/04/15 19:39:39;;;;;;;5.82;2.70;;;7.40;79.50;;;;;;6688351;88;20197;-78
2021/04/15 19:49:40;;;;;;;4.03;2.12;;;7.40;81.10;;;;;;6674440;88;20886;-78
2021/04/15 19:59:40;;;;;;;4.62;2.22;;;7.20;82.70;;;;;;6703915;88;20188;-77
2021/04/15 20:09:41;;;;;;;4.97;2.53;;;6.90;84.30;;;;;;6683939;88;20188;-78
2021/04/15 20:19:42;;;;;;;4.57;2.33;;;6.70;89.50;;;;;;6668407;88;20208;-79
2021/04/15 20:29:43;;;;;;;4.90;2.30;;;6.40;89.10;;;;;;6669368;88;20211;-78
2021/04/15 20:39:44;;;;;;;6.28;2.58;;;6.30;90.70;;;;;;6666690;88;20339;-78
2021/04/15 20:49:45;;;;;;;4.53;2.10;;;6.20;92.40;;;;;;6667958;88;20210;-78
2021/04/15 20:59:48;;;;;;;5.87;2.58;;;6.10;93.30;;;;;;6688734;88;20189;-79
2021/04/15 21:09:49;;;;;;;5.90;2.78;;;6.10;93.30;;;;;;6655246;88;20188;-78
2021/04/15 21:19:49;;;;;;;9.48;3.10;;;5.90;95.10;;;;;;6662909;88;20275;-78
2021/04/15 21:29:50;;;;;;;6.37;2.90;;;5.80;97.40;;;;;;6647487;88;21089;-78
2021/04/15 21:39:51;;;;;;;5.30;3.10;;;5.60;98.40;;;;;;6647411;88;20303;-78
2021/04/15 21:49:54;;;;;;;6.97;2.85;;;5.30;99.90;;;;;;6673486;88;20733;-77
2021/04/15 21:59:54;;;;;;;6.37;3.25;;;5.10;99.90;;;;;;6670803;88;20302;-78
2021/04/15 22:09:55;;;;;;;6.32;2.62;;;5.00;99.90;;;;;;6680601;88;20229;-78
2021/04/15 22:19:55;;;;;;;5.25;2.80;;;4.70;99.90;;;;;;6691100;88;20254;-78
2021/04/15 22:29:56;;;;;;;6.00;2.30;;;4.60;99.90;;;;;;6704977;88;20232;-77
2021/04/15 22:39:56;;;;;;;6.03;2.47;;;4.50;99.90;;;;;;6674624;88;20207;-78
2021/04/15 22:49:57;;;;;;;6.97;2.90;;;4.30;99.90;;;;;;6673309;88;20206;-78
2021/04/15 22:59:57;;;;;;;6.37;2.78;;;4.10;99.90;;;;;;6669586;88;20195;-77
2021/04/15 23:09:58;;;;;;;5.25;2.62;;;4.00;99.90;;;;;;6666680;88;20203;-77
2021/04/15 23:19:59;;;;;;;6.80;2.10;;;3.80;99.90;;;;;;6669763;89;20322;-77
2021/04/15 23:30:00;;;;;;;6.10;2.50;;;3.70;99.90;;;;;;6726652;88;20197;-76
2021/04/15 23:40:02;;;;;;;5.75;2.65;;;3.60;99.90;;;;;;6676447;88;20675;-76
2021/04/15 23:50:08;;;;;;;7.80;3.10;;;3.50;99.90;;;;;;6670531;88;21035;-76
